Time;durP1;ratioP1;P1;durP2;ratioP2;P2;SDS_P1;SDS_P2;PMS_P1;PMS_P2;Temp;Humidity;BMP_temperature;BMP_pressure;BME280_temperature;BME280_humidity;BME280_pressure;Samples;Min_cycle;Max_cycle;Signal;HPM_P1;HPM_P2
2023/04/08 00:01:31;;;;;;;33.40;14.45;;;;;;;7.60;71.45;101936.31;4923991;29;20039;-49
2023/04/08 00:03:56;;;;;;;44.40;16.40;;;;;;;7.59;71.49;101934.59;4919689;29;20039;-49
2023/04/08 00:06:22;;;;;;;39.63;15.20;;;;;;;7.60;71.58;101943.31;4929136;29;20492;-50
2023/04/08 00:08:47;;;;;;;35.70;16.08;;;;;;;7.61;71.43;101938.03;4926136;29;20056;-48
2023/04/08 00:11:12;;;;;;;34.95;16.55;;;;;;;7.58;71.55;101940.75;4928288;29;20054;-47
2023/04/08 00:13:38;;;;;;;41.03;16.60;;;;;;;7.57;71.43;101939.00;4930710;29;20066;-48
2023/04/08 00:16:03;;;;;;;42.30;15.30;;;;;;;7.58;71.33;101943.34;4923494;29;20547;-48
2023/04/08 00:18:29;;;;;;;43.85;15.10;;;;;;;7.56;71.75;101954.78;4925785;29;20063;-49
2023/04/08 00:20:56;;;;;;;39.85;15.75;;;;;;;7.51;71.67;101948.78;4923815;29;20042;-49
2023/04/08 00:23:21;;;;;;;36.55;15.38;;;;;;;7.51;71.96;101949.63;4929773;29;20042;-49
2023/04/08 00:25:47;;;;;;;42.22;17.35;;;;;;;7.51;71.33;101962.72;4925333;29;20408;-48
2023/04/08 00:28:13;;;;;;;47.50;17.95;;;;;;;7.47;71.63;101961.97;4928432;29;20040;-48
2023/04/08 00:30:38;;;;;;;51.45;17.75;;;;;;;7.47;71.70;101958.50;4925882;29;20031;-48
2023/04/08 00:33:04;;;;;;;45.05;17.13;;;;;;;7.50;71.87;101965.41;4921306;29;20042;-49
2023/04/08 00:35:29;;;;;;;27.17;11.88;;;;;;;7.51;71.84;101961.88;4926929;29;20515;-48
2023/04/08 00:37:54;;;;;;;46.67;15.77;;;;;;;7.51;71.53;101960.13;4927783;29;20455;-49
2023/04/08 00:40:20;;;;;;;48.72;17.25;;;;;;;7.53;71.59;101960.94;4928751;29;20172;-48
2023/04/08 00:42:45;;;;;;;52.13;20.63;;;;;;;7.57;71.64;101969.56;4926250;29;20105;-47
2023/04/08 00:45:12;;;;;;;46.10;16.95;;;;;;;7.55;71.45;101961.75;4919971;29;20039;-48
2023/04/08 00:47:38;;;;;;;48.45;15.98;;;;;;;7.60;71.44;101965.13;4932652;29;20059;-49
2023/04/08 00:50:06;;;;;;;42.83;16.98;;;;;;;7.62;71.38;101957.22;4930395;29;20464;-48
2023/04/08 00:52:31;;;;;;;52.08;16.65;;;;;;;7.62;71.30;101968.59;4929978;29;20035;-48
2023/04/08 00:54:56;;;;;;;44.45;16.45;;;;;;;7.60;71.24;101961.63;4927667;29;20035;-48
2023/04/08 00:57:22;;;;;;;45.20;17.02;;;;;;;7.61;71.40;101963.38;4930248;29;20414;-49
2023/04/08 00:59:47;;;;;;;25.33;10.88;;;;;;;7.61;71.60;101968.59;4928788;29;20485;-48
2023/04/08 01:02:34;;;;;;;39.53;16.85;;;;;;;7.60;71.49;101962.53;4926308;29;20031;-48
2023/04/08 01:05:05;;;;;;;43.38;16.85;;;;;;;7.55;71.75;101967.00;4924126;29;20019;-49
2023/04/08 01:07:34;;;;;;;38.60;16.65;;;;;;;7.55;71.57;101974.84;4922430;29;20480;-50
2023/04/08 01:10:20;;;;;;;43.53;16.50;;;;;;;7.55;71.61;101967.00;4922760;29;20400;-49
2023/04/08 01:12:54;;;;;;;37.53;16.42;;;;;;;7.62;71.74;101965.09;4911438;29;20047;-48
2023/04/08 01:15:21;;;;;;;47.22;16.15;;;;;;;7.63;71.47;101951.97;4926402;29;20038;-48
2023/04/08 01:17:49;;;;;;;40.40;17.30;;;;;;;7.59;71.27;101949.44;4929652;29;20027;-48
2023/04/08 01:20:16;;;;;;;41.15;16.25;;;;;;;7.54;71.67;101957.44;4920051;29;20174;-48
2023/04/08 01:22:59;;;;;;;37.60;15.48;;;;;;;7.55;71.75;101959.16;4928494;29;20031;-48
2023/04/08 01:25:33;;;;;;;38.70;15.90;;;;;;;7.58;71.86;101963.44;4928506;29;20035;-48
2023/04/08 01:28:15;;;;;;;38.90;16.27;;;;;;;7.57;71.86;101959.09;4927767;29;20670;-50
2023/04/08 01:30:42;;;;;;;42.03;15.95;;;;;;;7.51;72.01;101967.97;4927425;29;20079;-49
2023/04/08 01:33:12;;;;;;;40.28;15.40;;;;;;;7.52;71.88;101968.84;4926777;29;20036;-49
2023/04/08 01:35:38;;;;;;;44.92;17.40;;;;;;;7.48;71.87;101975.94;4926703;29;20420;-49
2023/04/08 01:38:07;;;;;;;40.58;15.35;;;;;;;7.52;71.75;101977.56;4926796;29;20040;-48
2023/04/08 01:40:36;;;;;;;39.53;16.90;;;;;;;7.54;71.69;101973.13;4930754;29;20027;-49
2023/04/08 01:43:05;;;;;;;39.08;16.23;;;;;;;7.57;71.34;101970.44;4928693;29;20028;-49
2023/04/08 01:45:30;;;;;;;45.78;18.48;;;;;;;7.56;71.63;101979.19;4928834;29;20480;-49
2023/04/08 01:47:57;;;;;;;39.88;15.57;;;;;;;7.58;71.55;101980.03;4926647;29;20036;-49
2023/04/08 01:50:24;;;;;;;39.63;18.48;;;;;;;7.62;71.47;101976.44;4928087;29;20027;-48
2023/04/08 01:52:52;;;;;;;37.50;17.05;;;;;;;7.60;71.49;101980.84;4933879;29;20028;-48
2023/04/08 01:55:18;;;;;;;37.90;16.83;;;;;;;7.56;71.53;101980.97;4929396;29;20142;-49
2023/04/08 01:57:48;;;;;;;33.92;16.30;;;;;;;7.59;71.52;101978.25;4933937;29;20027;-49
2023/04/08 02:00:15;;;;;;;35.00;14.82;;;;;;;7.60;71.46;101978.22;4928989;29;20095;-50
2023/04/08 02:02:41;;;;;;;35.90;16.42;;;;;;;7.61;71.67;101982.56;4933152;29;20118;-50
2023/04/08 02:05:07;;;;;;;29.10;14.13;;;;;;;7.60;72.04;101986.09;4934433;29;20059;-50
2023/04/08 02:07:33;;;;;;;36.40;16.02;;;;;;;7.62;71.43;101991.28;4930837;29;20066;-49
2023/04/08 02:09:58;;;;;;;37.22;15.73;;;;;;;7.63;71.63;101988.66;4927031;29;20035;-49
2023/04/08 02:12:25;;;;;;;35.83;15.45;;;;;;;7.60;71.64;101988.72;4934389;29;21215;-49
2023/04/08 02:14:52;;;;;;;33.53;15.20;;;;;;;7.59;71.92;101997.47;4933980;29;20039;-48
2023/04/08 02:17:44;;;;;;;33.50;15.15;;;;;;;7.62;71.58;101996.53;4932592;29;20123;-49
2023/04/08 02:20:14;;;;;;;34.22;13.80;;;;;;;7.62;71.97;101997.41;4927432;29;20524;-48
2023/04/08 02:22:56;;;;;;;32.45;14.70;;;;;;;7.65;71.38;102003.44;4928593;29;21606;-48
2023/04/08 02:25:23;;;;;;;;;;;;;;;7.60;72.41;102004.44;4933737;29;20024;-49
2023/04/08 02:27:50;;;;;;;30.92;12.60;;;;;;;7.58;71.92;102005.34;4930145;29;19922;-50
2023/04/08 02:30:16;;;;;;;34.03;15.70;;;;;;;7.60;71.82;102000.94;4931129;29;20031;-49
2023/04/08 02:32:44;;;;;;;41.58;13.95;;;;;;;7.60;71.69;102004.44;4928252;29;20035;-49
2023/04/08 02:35:11;;;;;;;36.88;14.43;;;;;;;7.61;71.74;102010.50;4929981;29;20032;-49
2023/04/08 02:37:37;;;;;;;38.17;14.18;;;;;;;7.60;71.72;102009.66;4926938;29;20028;-50
2023/04/08 02:40:03;;;;;;;34.03;14.60;;;;;;;7.59;71.82;102013.19;4924729;29;20102;-49
2023/04/08 02:42:28;;;;;;;32.47;14.38;;;;;;;7.61;71.49;102010.50;4931296;29;20119;-48
2023/04/08 02:44:54;;;;;;;38.50;15.95;;;;;;;7.61;71.56;102018.38;4928330;29;20038;-49
2023/04/08 02:47:19;;;;;;;34.40;15.38;;;;;;;7.56;71.73;102008.00;4928857;29;20035;-48
2023/04/08 02:49:45;;;;;;;35.55;13.57;;;;;;;7.57;71.59;102003.63;4932433;29;20412;-50
2023/04/08 02:52:10;;;;;;;33.75;14.90;;;;;;;7.53;71.68;102015.09;4931045;29;20036;-49
2023/04/08 02:54:36;;;;;;;29.67;12.77;;;;;;;7.52;71.72;102014.22;4929795;29;20039;-50
2023/04/08 02:57:01;;;;;;;37.80;14.82;;;;;;;7.55;71.69;102011.53;4934578;29;20055;-51
2023/04/08 02:59:27;;;;;;;31.02;13.43;;;;;;;7.53;71.99;102007.25;4925865;29;20090;-49
2023/04/08 03:01:52;;;;;;;34.78;15.07;;;;;;;7.55;71.98;102010.69;4929525;29;20095;-49
2023/04/08 03:04:17;;;;;;;34.38;15.15;;;;;;;7.56;72.15;102013.25;4930139;29;20114;-49
2023/04/08 03:06:43;;;;;;;33.13;14.70;;;;;;;7.58;71.72;102010.59;4932175;29;20039;-48
2023/04/08 03:09:08;;;;;;;29.80;14.40;;;;;;;7.57;71.54;102022.84;4931256;29;20031;-50
2023/04/08 03:11:34;;;;;;;35.80;15.38;;;;;;;7.57;71.85;102024.59;4931502;29;20036;-50
2023/04/08 03:13:59;;;;;;;32.83;14.60;;;;;;;7.57;71.58;102024.59;4929651;29;20396;-49
2023/04/08 03:16:25;;;;;;;35.25;14.93;;;;;;;7.56;72.01;102030.75;4931534;29;20079;-49
2023/04/08 03:18:50;;;;;;;35.13;14.55;;;;;;;7.58;71.72;102026.31;4929446;29;20027;-49
2023/04/08 03:21:16;;;;;;;34.08;15.90;;;;;;;7.62;71.76;102027.97;4927362;29;20183;-50
2023/04/08 03:23:42;;;;;;;38.17;13.77;;;;;;;7.65;71.43;102013.91;4929781;29;20034;-49
2023/04/08 03:26:07;;;;;;;37.85;16.00;;;;;;;7.68;71.24;102032.19;4928003;29;20035;-49
2023/04/08 03:28:33;;;;;;;27.40;13.25;;;;;;;7.65;71.62;102037.50;4933429;29;20084;-48
2023/04/08 03:30:59;;;;;;;29.38;13.77;;;;;;;7.60;72.06;102028.00;4932605;29;20046;-49
2023/04/08 03:33:25;;;;;;;28.95;14.50;;;;;;;7.60;71.92;102022.78;4930999;29;20039;-49
2023/04/08 03:35:52;;;;;;;31.55;13.95;;;;;;;7.61;71.75;102019.25;4933034;29;20090;-51
2023/04/08 03:38:17;;;;;;;34.03;14.93;;;;;;;7.62;71.73;102018.34;4926169;29;20042;-51
2023/04/08 03:40:43;;;;;;;36.15;14.70;;;;;;;7.65;71.98;102020.03;4930950;29;20106;-48
2023/04/08 03:43:10;;;;;;;33.47;13.68;;;;;;;7.70;71.76;102025.16;4928299;29;20032;-48
2023/04/08 03:45:36;;;;;;;36.40;14.85;;;;;;;7.65;71.57;102024.38;4922866;29;20032;-48
2023/04/08 03:48:01;;;;;;;35.83;14.43;;;;;;;7.65;71.90;102029.63;4929670;29;20042;-48
2023/04/08 03:50:27;;;;;;;36.55;16.70;;;;;;;7.65;71.38;102037.50;4928852;29;20050;-48
2023/04/08 03:52:52;;;;;;;31.35;14.10;;;;;;;7.67;71.78;102046.19;4929375;29;20027;-50
2023/04/08 03:55:18;;;;;;;35.65;14.18;;;;;;;7.69;71.65;102044.38;4929856;29;20035;-48
2023/04/08 03:57:45;;;;;;;32.45;14.52;;;;;;;7.70;71.73;102046.09;4927115;29;20032;-49
2023/04/08 04:00:11;;;;;;;35.13;15.07;;;;;;;7.71;71.67;102053.06;4929210;29;20039;-50
2023/04/08 04:02:36;;;;;;;31.33;14.05;;;;;;;7.73;71.83;102049.50;4922750;29;20031;-50
2023/04/08 04:05:02;;;;;;;39.83;13.50;;;;;;;7.75;71.67;102054.72;4930562;29;20511;-49
2023/04/08 04:07:27;;;;;;;33.10;14.20;;;;;;;7.71;71.89;102053.94;4930468;29;20047;-50
2023/04/08 04:09:55;;;;;;;34.15;14.88;;;;;;;7.74;71.60;102056.47;4923068;29;20130;-49
2023/04/08 04:12:20;;;;;;;33.88;13.60;;;;;;;7.76;71.37;102052.06;4930985;29;20054;-49
2023/04/08 04:14:46;;;;;;;51.30;22.33;;;;;;;7.78;71.39;102058.13;4932699;29;20031;-49
2023/04/08 04:17:11;;;;;;;34.88;14.63;;;;;;;7.78;71.52;102060.75;4930410;29;20054;-49
2023/04/08 04:19:36;;;;;;;32.60;13.55;;;;;;;7.75;71.74;102073.91;4922811;29;20043;-49
2023/04/08 04:22:02;;;;;;;31.33;14.77;;;;;;;7.62;71.72;102069.88;4928699;29;20032;-49
2023/04/08 04:24:27;;;;;;;32.08;14.85;;;;;;;7.58;72.45;102073.44;4930405;29;20122;-49
2023/04/08 04:26:53;;;;;;;34.25;13.65;;;;;;;7.55;72.24;102079.63;4928756;29;20103;-48
2023/04/08 04:29:18;;;;;;;29.90;13.35;;;;;;;7.51;72.46;102071.91;4925671;29;20095;-48
2023/04/08 04:31:44;;;;;;;32.17;14.20;;;;;;;7.53;72.61;102076.19;4929476;29;20038;-49
2023/04/08 04:34:10;;;;;;;37.88;14.70;;;;;;;7.53;72.19;102081.44;4931420;28;20035;-49
2023/04/08 04:36:36;;;;;;;35.95;14.35;;;;;;;7.55;72.59;102084.03;4934350;29;20046;-49
2023/04/08 04:39:01;;;;;;;49.08;20.45;;;;;;;7.57;72.51;102087.44;4931141;29;20039;-49
2023/04/08 04:41:27;;;;;;;32.88;14.10;;;;;;;7.57;72.46;102088.31;4933305;29;20110;-50
2023/04/08 04:43:52;;;;;;;35.50;14.70;;;;;;;7.57;72.25;102093.56;4931529;29;20412;-49
2023/04/08 04:46:18;;;;;;;35.72;16.13;;;;;;;7.59;72.33;102090.91;4930110;29;20036;-48
2023/04/08 04:48:43;;;;;;;39.22;16.23;;;;;;;7.60;72.49;102096.13;4895442;29;20038;-49
2023/04/08 04:51:08;;;;;;;38.72;15.23;;;;;;;7.62;72.31;102093.44;4931138;29;20043;-50
2023/04/08 04:53:34;;;;;;;44.50;15.43;;;;;;;7.57;72.31;102092.69;4931061;29;20023;-48
2023/04/08 04:56:00;;;;;;;33.80;13.65;;;;;;;7.57;72.59;102092.69;4931471;29;20035;-49
2023/04/08 04:58:26;;;;;;;39.83;14.93;;;;;;;7.55;72.34;102095.34;4931061;29;20031;-48
2023/04/08 05:00:51;;;;;;;41.63;15.77;;;;;;;7.57;72.47;102095.31;4929747;29;20501;-48
2023/04/08 05:03:17;;;;;;;37.28;14.65;;;;;;;7.59;72.43;102099.63;4928248;29;20492;-48
2023/04/08 05:05:42;;;;;;;35.33;14.95;;;;;;;7.61;72.45;102104.81;4931078;29;20114;-52
2023/04/08 05:08:07;;;;;;;39.58;15.73;;;;;;;7.61;72.20;102105.69;4927753;29;20069;-48
2023/04/08 05:10:33;;;;;;;37.30;14.13;;;;;;;7.62;72.25;102112.66;4931104;29;20127;-50
2023/04/08 05:12:58;;;;;;;53.67;21.17;;;;;;;7.61;72.62;102104.81;4926098;29;20493;-48
2023/04/08 05:15:24;;;;;;;41.30;17.00;;;;;;;7.62;72.35;102123.16;4931601;29;20035;-49
2023/04/08 05:17:49;;;;;;;36.03;15.40;;;;;;;7.62;72.23;102123.16;4930241;29;20043;-49
2023/04/08 05:20:15;;;;;;;38.33;16.45;;;;;;;7.60;72.61;102119.69;4926942;29;20091;-48
2023/04/08 05:22:41;;;;;;;39.45;16.60;;;;;;;7.61;72.69;102120.53;4927817;29;20047;-48
2023/04/08 05:25:07;;;;;;;32.47;14.38;;;;;;;7.60;72.50;102116.19;4928385;29;20032;-48
2023/04/08 05:27:32;;;;;;;36.50;15.13;;;;;;;7.57;72.58;102119.75;4923769;29;20034;-50
2023/04/08 05:29:58;;;;;;;43.50;16.08;;;;;;;7.62;72.35;102115.28;4930958;29;20036;-48
2023/04/08 05:32:23;;;;;;;41.17;16.52;;;;;;;7.64;72.29;102112.63;4932419;29;20520;-49
2023/04/08 05:34:49;;;;;;;36.00;14.48;;;;;;;7.70;72.24;102119.47;4934211;29;20028;-49
2023/04/08 05:37:14;;;;;;;49.35;22.20;;;;;;;7.71;72.21;102115.94;4930532;29;20126;-50
2023/04/08 05:39:41;;;;;;;33.47;15.82;;;;;;;7.71;72.10;102116.84;4932512;29;20026;-49
2023/04/08 05:42:06;;;;;;;34.55;12.70;;;;;;;7.77;72.29;102126.31;4924816;29;20054;-49
2023/04/08 05:44:32;;;;;;;32.10;13.18;;;;;;;7.82;71.89;102119.16;4921928;29;20027;-49
2023/04/08 05:46:59;;;;;;;34.03;14.38;;;;;;;7.86;72.10;102126.06;4928402;29;20110;-49
2023/04/08 05:49:24;;;;;;;29.15;12.30;;;;;;;7.86;71.71;102126.06;4929577;29;20039;-49
2023/04/08 05:51:50;;;;;;;30.83;13.30;;;;;;;7.88;72.03;102137.38;4932166;29;20040;-48
2023/04/08 05:54:15;;;;;;;37.95;15.13;;;;;;;7.88;72.02;102140.00;4939063;29;20057;-48
2023/04/08 05:56:41;;;;;;;28.85;13.57;;;;;;;7.90;71.85;102143.44;4932717;29;20389;-50
2023/04/08 05:59:06;;;;;;;31.55;13.43;;;;;;;7.88;72.01;102144.38;4934916;29;20091;-49
2023/04/08 06:01:31;;;;;;;37.85;14.32;;;;;;;7.89;71.72;102146.97;4926879;29;20039;-49
2023/04/08 06:03:57;;;;;;;32.08;13.63;;;;;;;7.87;72.10;102153.13;4932606;29;20032;-48
2023/04/08 06:06:24;;;;;;;42.28;16.20;;;;;;;7.91;71.89;102152.16;4920390;29;20089;-48
2023/04/08 06:08:50;;;;;;;42.95;15.77;;;;;;;7.97;72.05;102154.66;4928508;29;20047;-49
2023/04/08 06:11:15;;;;;;;34.38;13.13;;;;;;;8.01;71.87;102160.66;4932330;29;20032;-48
2023/04/08 06:13:41;;;;;;;31.80;13.55;;;;;;;8.04;71.69;102163.22;4932108;29;20046;-49
2023/04/08 06:16:14;;;;;;;29.60;13.55;;;;;;;8.16;71.48;102173.41;4931643;29;20028;-49
2023/04/08 06:18:40;;;;;;;30.25;11.80;;;;;;;8.10;71.43;102160.44;4933797;29;20031;-49
2023/04/08 06:21:06;;;;;;;32.63;10.93;;;;;;;8.11;71.48;102167.41;4931142;29;20039;-49
2023/04/08 06:23:31;;;;;;;28.88;12.60;;;;;;;8.11;71.49;102177.03;4926363;29;20138;-49
2023/04/08 06:25:57;;;;;;;27.95;12.00;;;;;;;8.18;71.50;102186.47;4920858;29;20063;-48
2023/04/08 06:28:23;;;;;;;32.47;11.90;;;;;;;8.19;71.43;102183.81;4924153;29;20074;-49
2023/04/08 06:30:48;;;;;;;32.33;12.45;;;;;;;8.27;71.15;102182.75;4928956;29;20111;-48
2023/04/08 06:33:14;;;;;;;27.65;11.77;;;;;;;8.16;71.63;102185.66;4923985;29;20050;-49
2023/04/08 06:35:40;;;;;;;26.58;12.55;;;;;;;8.18;71.62;102189.97;4929081;29;20044;-49
2023/04/08 06:38:05;;;;;;;31.33;12.00;;;;;;;8.21;71.69;102192.53;4925393;29;20036;-49
2023/04/08 06:40:31;;;;;;;27.48;11.60;;;;;;;8.20;71.51;102192.53;4929355;29;20047;-49
2023/04/08 06:42:56;;;;;;;30.17;11.85;;;;;;;8.24;71.74;102194.19;4927996;29;20039;-49
2023/04/08 06:45:21;;;;;;;33.13;12.45;;;;;;;8.30;71.20;102203.66;4931841;29;20070;-50
2023/04/08 06:47:47;;;;;;;29.33;13.10;;;;;;;8.32;71.35;102202.72;4922197;29;20034;-48
2023/04/08 06:50:12;;;;;;;34.90;13.13;;;;;;;8.41;71.26;102203.41;4922616;29;20063;-50
2023/04/08 06:52:38;;;;;;;24.05;10.48;;;;;;;8.48;71.25;102205.88;4928429;29;20456;-48
2023/04/08 06:55:04;;;;;;;33.70;15.25;;;;;;;8.49;71.18;102204.09;4927524;29;20070;-49
2023/04/08 06:57:29;;;;;;;31.17;14.45;;;;;;;8.53;71.38;102204.00;4924763;29;20032;-48
2023/04/08 06:59:55;;;;;;;34.13;14.88;;;;;;;8.59;70.78;102209.97;4924673;29;20500;-50
2023/04/08 07:02:21;;;;;;;30.75;13.50;;;;;;;8.64;70.90;102215.97;4916658;29;20173;-48
2023/04/08 07:04:47;;;;;;;37.08;14.50;;;;;;;8.65;71.05;102215.06;4924602;29;20103;-48
2023/04/08 07:07:13;;;;;;;38.38;15.63;;;;;;;8.68;70.97;102223.72;4914162;29;20035;-49
2023/04/08 07:09:40;;;;;;;32.13;13.48;;;;;;;8.78;70.69;102226.97;4918246;29;20032;-48
2023/04/08 07:12:05;;;;;;;30.30;12.60;;;;;;;8.80;70.48;102230.41;4912478;29;20157;-52
2023/04/08 07:14:31;;;;;;;32.30;12.98;;;;;;;8.84;70.51;102226.81;4923903;29;20981;-49
2023/04/08 07:16:56;;;;;;;28.50;12.73;;;;;;;8.85;70.30;102236.38;4926990;29;20095;-49
2023/04/08 07:19:23;;;;;;;32.20;12.77;;;;;;;8.87;70.28;102233.75;4926260;29;20031;-53
2023/04/08 07:21:48;;;;;;;31.00;13.60;;;;;;;8.90;70.15;102235.41;4922074;29;20035;-48
2023/04/08 07:24:14;;;;;;;30.40;14.73;;;;;;;8.87;70.17;102235.47;4928472;29;20035;-48
2023/04/08 07:26:40;;;;;;;29.98;14.40;;;;;;;8.88;70.31;102238.09;4932231;29;20040;-48
2023/04/08 07:29:05;;;;;;;31.52;13.85;;;;;;;8.90;70.29;102240.66;4928569;29;20053;-49
2023/04/08 07:31:31;;;;;;;37.10;14.48;;;;;;;8.92;70.23;102241.47;4925212;29;20508;-50
2023/04/08 07:33:56;;;;;;;31.90;13.68;;;;;;;8.90;70.37;102243.28;4929564;29;20039;-49
2023/04/08 07:36:21;;;;;;;32.72;13.88;;;;;;;8.93;70.42;102251.09;4930740;29;20480;-48
2023/04/08 07:38:47;;;;;;;29.75;13.48;;;;;;;8.95;70.38;102244.88;4929283;29;20024;-49
2023/04/08 07:41:12;;;;;;;32.97;14.60;;;;;;;9.00;70.29;102247.38;4915579;29;20148;-49
2023/04/08 07:43:38;;;;;;;36.85;14.60;;;;;;;9.06;70.05;102249.84;4930829;29;20551;-49
2023/04/08 07:46:05;;;;;;;30.92;14.13;;;;;;;9.12;69.80;102252.31;4927475;29;20031;-48
2023/04/08 07:48:31;;;;;;;41.67;16.83;;;;;;;9.18;69.96;102250.41;4929597;29;20032;-49
2023/04/08 07:50:57;;;;;;;39.08;16.45;;;;;;;9.23;69.82;102257.25;4926903;29;20083;-49
2023/04/08 07:53:25;;;;;;;32.97;15.02;;;;;;;9.31;69.85;102259.66;4927891;29;20031;-48
2023/04/08 07:55:50;;;;;;;37.75;16.27;;;;;;;9.38;69.59;102269.09;4931201;29;20035;-49
2023/04/08 07:58:16;;;;;;;36.50;14.50;;;;;;;9.44;69.29;102271.56;4930874;29;20087;-50
2023/04/08 08:00:41;;;;;;;33.80;14.98;;;;;;;9.49;69.62;102271.44;4928927;29;20045;-50
2023/04/08 08:03:08;;;;;;;36.05;16.60;;;;;;;9.53;69.56;102272.19;4911823;29;20035;-50
2023/04/08 08:05:35;;;;;;;33.65;15.25;;;;;;;9.63;69.31;102273.66;4926695;29;20042;-49
2023/04/08 08:08:00;;;;;;;39.00;15.98;;;;;;;9.74;69.08;102274.22;4922086;29;20047;-49
2023/04/08 08:10:26;;;;;;;37.60;16.55;;;;;;;9.82;68.90;102284.50;4926146;29;20039;-50
2023/04/08 08:12:51;;;;;;;33.33;15.52;;;;;;;9.85;68.72;102283.53;4928247;29;20041;-48
2023/04/08 08:15:17;;;;;;;38.42;16.15;;;;;;;9.88;68.88;102278.19;4925861;29;20514;-52
2023/04/08 08:17:42;;;;;;;37.60;16.83;;;;;;;9.85;68.97;102286.16;4911679;29;20035;-51
2023/04/08 08:20:09;;;;;;;35.70;15.77;;;;;;;9.83;69.05;102285.34;4921117;29;20050;-48
2023/04/08 08:22:35;;;;;;;35.28;15.27;;;;;;;9.86;69.06;102288.75;4925227;29;20788;-49
2023/04/08 08:25:00;;;;;;;33.13;15.32;;;;;;;9.85;69.08;102291.44;4927578;29;20051;-49
2023/04/08 08:27:25;;;;;;;41.45;15.15;;;;;;;9.87;69.03;102284.38;4925097;29;20165;-49
2023/04/08 08:29:51;;;;;;;33.80;16.65;;;;;;;9.97;68.91;102293.69;4928220;29;20583;-49
2023/04/08 08:32:17;;;;;;;39.15;14.82;;;;;;;9.81;69.38;102295.94;4926561;29;20043;-49
2023/04/08 08:34:43;;;;;;;30.73;15.93;;;;;;;9.80;69.44;102290.69;4924297;29;20039;-48
2023/04/08 08:37:09;;;;;;;33.00;15.88;;;;;;;9.84;69.70;102292.34;4926376;29;20043;-49
2023/04/08 08:39:34;;;;;;;35.22;16.85;;;;;;;9.87;69.41;102293.09;4920650;29;20043;-50
2023/04/08 08:41:59;;;;;;;33.05;16.77;;;;;;;9.89;69.51;102296.53;4926719;29;21406;-48
2023/04/08 08:44:25;;;;;;;39.42;17.00;;;;;;;9.91;69.54;102299.13;4922849;29;20039;-49
2023/04/08 08:46:52;;;;;;;34.85;16.13;;;;;;;9.94;69.50;102299.03;4919851;29;20106;-49
2023/04/08 08:49:17;;;;;;;35.67;16.38;;;;;;;9.97;69.34;102309.47;4924624;29;20031;-49
2023/04/08 08:51:49;;;;;;;37.65;15.80;;;;;;;10.01;69.08;102297.94;4904837;29;20106;-50
2023/04/08 08:54:14;;;;;;;33.47;14.87;;;;;;;9.99;69.42;102307.66;4926210;29;20040;-50
2023/04/08 08:56:42;;;;;;;36.47;17.70;;;;;;;10.00;69.30;102309.38;4921596;29;20082;-49
2023/04/08 08:59:08;;;;;;;35.95;17.17;;;;;;;10.09;69.13;102304.72;4924462;29;20127;-48
2023/04/08 09:01:39;;;;;;;47.33;21.05;;;;;;;10.07;69.40;102323.19;4920496;29;20540;-49
2023/04/08 09:04:17;;;;;;;57.42;25.88;;;;;;;10.07;69.40;102312.69;4927110;29;20039;-49
2023/04/08 09:06:43;;;;;;;43.85;19.05;;;;;;;10.11;69.34;102322.22;4919800;29;20027;-48
2023/04/08 09:09:09;;;;;;;38.95;18.05;;;;;;;10.16;69.24;102309.75;4923590;29;20032;-48
2023/04/08 09:11:39;;;;;;;36.45;15.95;;;;;;;10.26;69.07;102326.13;4920610;29;20365;-49
2023/04/08 09:14:06;;;;;;;36.95;15.07;;;;;;;10.36;68.65;102319.66;4903997;29;20040;-49
2023/04/08 09:16:32;;;;;;;39.55;17.27;;;;;;;10.47;68.42;102318.50;4918479;29;20059;-49
2023/04/08 09:19:09;;;;;;;35.00;16.33;;;;;;;10.60;68.05;102317.19;4901972;29;20087;-49
2023/04/08 09:21:35;;;;;;;36.95;16.92;;;;;;;10.68;67.79;102328.31;4920894;28;20046;-48
2023/04/08 09:24:00;;;;;;;42.15;18.83;;;;;;;10.73;67.82;102322.91;4915856;29;20028;-49
2023/04/08 09:26:26;;;;;;;38.97;19.05;;;;;;;10.80;67.66;102332.31;4923445;29;20035;-49
2023/04/08 09:29:02;;;;;;;47.67;21.08;;;;;;;10.88;67.36;102328.59;4920478;29;20122;-50
2023/04/08 09:31:30;;;;;;;37.80;17.52;;;;;;;10.96;67.39;102329.19;4923106;29;20024;-49
2023/04/08 09:34:02;;;;;;;39.30;17.08;;;;;;;11.08;67.18;102330.53;4909827;29;20036;-49
2023/04/08 09:36:29;;;;;;;38.58;17.45;;;;;;;11.17;67.15;102326.72;4920991;29;20047;-49
2023/04/08 09:38:55;;;;;;;37.88;16.35;;;;;;;11.26;66.97;102329.91;4919318;29;20035;-49
2023/04/08 09:41:23;;;;;;;42.33;20.02;;;;;;;11.38;66.88;102333.00;4923955;29;20519;-49
2023/04/08 09:43:53;;;;;;;36.67;16.30;;;;;;;11.43;66.74;102334.56;4919386;29;20071;-49
2023/04/08 09:46:35;;;;;;;34.80;17.65;;;;;;;11.48;66.44;102333.53;4927520;29;20039;-49
2023/04/08 09:49:12;;;;;;;34.22;16.33;;;;;;;11.49;66.30;102341.38;4927224;29;20023;-48
2023/04/08 09:51:49;;;;;;;31.52;15.98;;;;;;;11.50;66.30;102342.22;4919248;29;20032;-49
2023/04/08 09:54:20;;;;;;;43.30;16.20;;;;;;;11.46;66.58;102335.38;4922659;29;20512;-49
2023/04/08 09:56:57;;;;;;;32.88;16.40;;;;;;;11.52;66.42;102336.00;4925101;29;20468;-49
2023/04/08 09:59:26;;;;;;;32.33;14.95;;;;;;;11.62;66.26;102340.94;4924274;29;20451;-49
2023/04/08 10:01:55;;;;;;;33.75;16.38;;;;;;;11.78;66.05;102335.97;4910818;29;20621;-48
2023/04/08 10:04:25;;;;;;;34.47;15.40;;;;;;;11.84;65.67;102336.59;4927251;29;20048;-48
2023/04/08 10:06:59;;;;;;;29.15;13.55;;;;;;;11.90;65.33;102336.34;4921283;29;20094;-49
2023/04/08 10:09:26;;;;;;;34.58;15.60;;;;;;;11.98;65.29;102337.84;4924284;29;20038;-49
2023/04/08 10:11:52;;;;;;;31.83;14.02;;;;;;;12.08;65.20;102341.03;4905033;29;20552;-49
2023/04/08 10:14:20;;;;;;;28.92;13.95;;;;;;;12.17;64.86;102336.25;4919347;29;20042;-50
2023/04/08 10:16:46;;;;;;;31.80;14.15;;;;;;;12.26;64.62;102334.16;4928409;29;20063;-49
2023/04/08 10:19:42;;;;;;;27.90;12.85;;;;;;;12.33;64.20;102341.78;4922891;29;20062;-51
2023/04/08 10:22:32;;;;;;;33.17;14.55;;;;;;;12.44;63.81;102344.00;4923433;29;20035;-49
2023/04/08 10:25:18;;;;;;;31.23;13.43;;;;;;;12.54;63.67;102346.25;4922585;29;20067;-49
2023/04/08 10:27:44;;;;;;;26.70;13.50;;;;;;;12.63;63.55;102344.09;4928216;29;20024;-51
2023/04/08 10:30:30;;;;;;;29.40;13.57;;;;;;;12.75;63.04;102345.41;4924693;29;20035;-50
2023/04/08 10:32:59;;;;;;;28.20;13.68;;;;;;;12.74;63.26;102343.69;4930412;29;20448;-50
2023/04/08 10:35:51;;;;;;;33.00;14.60;;;;;;;12.69;63.39;102340.34;4923216;29;20028;-49
2023/04/08 10:38:17;;;;;;;29.02;14.13;;;;;;;12.72;63.02;102342.00;4920873;29;20040;-50
2023/04/08 10:40:43;;;;;;;28.88;14.40;;;;;;;12.80;63.25;102339.91;4933730;29;20071;-49
2023/04/08 10:43:10;;;;;;;28.05;14.30;;;;;;;12.87;62.97;102333.44;4930662;29;20036;-49
2023/04/08 10:45:37;;;;;;;24.50;11.85;;;;;;;12.94;62.78;102334.03;4929906;29;20555;-50
2023/04/08 10:48:11;;;;;;;24.13;12.98;;;;;;;12.97;62.32;102333.91;4931972;29;20040;-49
2023/04/08 10:50:37;;;;;;;23.88;13.15;;;;;;;13.03;62.22;102336.31;4924318;29;20397;-49
2023/04/08 10:53:03;;;;;;;35.15;15.73;;;;;;;13.11;62.16;102341.25;4926654;29;20560;-50
2023/04/08 10:55:30;;;;;;;26.17;13.73;;;;;;;13.11;62.05;102336.81;4929351;29;20035;-49
2023/04/08 10:58:04;;;;;;;46.63;20.77;;;;;;;13.03;62.05;102338.94;4928985;29;20035;-49
2023/04/08 11:00:37;;;;;;;49.53;21.20;;;;;;;13.00;62.00;102333.78;4928312;29;20087;-49
2023/04/08 11:03:08;;;;;;;28.88;14.25;;;;;;;13.05;61.82;102339.75;4928613;29;20118;-49
2023/04/08 11:05:35;;;;;;;31.47;14.53;;;;;;;13.14;61.68;102338.50;4924280;29;20039;-49
2023/04/08 11:08:01;;;;;;;28.50;14.02;;;;;;;13.19;61.59;102330.34;4923278;29;20032;-49
2023/04/08 11:10:27;;;;;;;26.85;13.35;;;;;;;13.34;61.02;102337.63;4926924;29;20046;-49
2023/04/08 11:12:54;;;;;;;29.80;14.13;;;;;;;13.36;60.97;102334.91;4926740;29;20043;-49
2023/04/08 11:15:21;;;;;;;25.63;12.15;;;;;;;13.38;60.99;102328.63;4924168;29;20074;-49
2023/04/08 11:17:48;;;;;;;25.23;13.65;;;;;;;13.51;60.58;102339.53;4921899;29;20031;-49